createdAt,value
2022-12-23T00:00:53.150Z,31.10
2022-12-23T00:03:25.359Z,27.80
2022-12-23T00:05:54.520Z,29.90
2022-12-23T00:08:23.408Z,30.70
2022-12-23T00:10:53.802Z,31.30
2022-12-23T00:13:41.264Z,29.50
2022-12-23T00:16:14.928Z,24.60
2022-12-23T00:18:43.856Z,29.70
2022-12-23T00:21:15.536Z,29.80
2022-12-23T00:23:47.345Z,24.00
2022-12-23T00:28:45.891Z,26.70
2022-12-23T00:31:18.990Z,28.90
2022-12-23T00:33:49.645Z,27.10
2022-12-23T00:36:21.363Z,30.10
2022-12-23T00:42:16.891Z,29.40
2022-12-23T00:44:45.900Z,29.40
2022-12-23T00:47:34.536Z,30.20
2022-12-23T00:50:03.329Z,28.90
2022-12-23T00:52:32.011Z,31.10
2022-12-23T00:55:00.704Z,34.40
2022-12-23T00:57:29.584Z,35.00
2022-12-23T00:59:58.072Z,32.50
2022-12-23T01:02:45.782Z,33.30
2022-12-23T01:05:33.531Z,29.60
2022-12-23T01:08:02.014Z,28.20
2022-12-23T01:10:30.801Z,32.80
2022-12-23T01:12:59.288Z,31.60
2022-12-23T01:15:28.279Z,35.80
2022-12-23T01:17:57.170Z,29.60
2022-12-23T01:20:25.854Z,30.40
2022-12-23T01:22:54.419Z,32.60
2022-12-23T01:25:23.123Z,30.70
2022-12-23T01:27:51.727Z,33.50
2022-12-23T01:30:20.394Z,30.10
2022-12-23T01:32:48.979Z,30.60
2022-12-23T01:35:17.973Z,35.70
2022-12-23T01:37:46.660Z,29.20
2022-12-23T01:40:15.449Z,31.30
2022-12-23T01:42:43.924Z,29.30
2022-12-23T01:45:17.474Z,29.60
2022-12-23T01:47:57.890Z,26.10
2022-12-23T01:50:26.777Z,18.70
2022-12-23T01:53:08.846Z,25.80
2022-12-23T01:55:51.391Z,24.40
2022-12-23T01:58:26.324Z,26.40
2022-12-23T02:01:16.456Z,26.50
2022-12-23T02:03:50.708Z,27.20
2022-12-23T02:06:45.938Z,21.50
2022-12-23T02:09:20.563Z,23.20
2022-12-23T02:12:26.490Z,30.10
2022-12-23T02:15:32.689Z,26.80
2022-12-23T02:18:20.218Z,23.10
2022-12-23T02:21:07.745Z,23.40
2022-12-23T02:23:55.081Z,30.00
2022-12-23T02:26:52.833Z,31.50
2022-12-23T02:29:33.604Z,26.10
2022-12-23T02:32:31.504Z,24.10
2022-12-23T02:35:15.215Z,25.40
2022-12-23T02:38:04.175Z,23.30
2022-12-23T02:40:39.316Z,23.00
2022-12-23T02:43:17.828Z,22.00
2022-12-23T02:46:02.530Z,28.20
2022-12-23T02:48:34.108Z,27.20
2022-12-23T02:51:05.373Z,29.60
2022-12-23T02:53:56.505Z,26.30
2022-12-23T02:56:27.727Z,25.30
2022-12-23T02:59:01.873Z,30.30
2022-12-23T03:01:33.884Z,22.30
2022-12-23T03:04:02.947Z,29.50
2022-12-23T03:06:41.820Z,25.80
2022-12-23T03:09:29.997Z,26.90
2022-12-23T03:12:20.894Z,22.90
2022-12-23T03:15:35.879Z,22.30
2022-12-23T03:18:16.553Z,26.10
2022-12-23T03:21:03.864Z,23.30
2022-12-23T03:24:11.048Z,25.00
2022-12-23T03:26:48.906Z,23.60
2022-12-23T03:29:40.062Z,28.00
2022-12-23T03:32:10.432Z,23.90
2022-12-23T03:34:44.602Z,31.90
2022-12-23T03:37:16.633Z,25.30
2022-12-23T03:39:53.239Z,24.70
2022-12-23T03:42:29.811Z,24.20
2022-12-23T03:45:37.062Z,29.20
2022-12-23T03:48:21.249Z,31.70
2022-12-23T03:50:56.110Z,29.00
2022-12-23T03:53:31.631Z,30.20
2022-12-23T03:56:06.567Z,30.70
2022-12-23T03:58:45.386Z,30.70
2022-12-23T04:01:48.469Z,31.60
2022-12-23T04:04:29.762Z,29.50
2022-12-23T04:07:05.611Z,32.40
2022-12-23T04:09:35.984Z,21.60
2022-12-23T04:12:05.400Z,25.50
2022-12-23T04:14:35.950Z,21.90
2022-12-23T04:17:04.501Z,24.70
2022-12-23T04:19:33.666Z,27.50
2022-12-23T04:22:02.341Z,24.30
2022-12-23T04:24:31.030Z,27.40
2022-12-23T04:26:59.814Z,25.70
2022-12-23T04:29:28.401Z,32.30
2022-12-23T04:31:57.036Z,28.00
2022-12-23T04:34:26.093Z,25.50
2022-12-23T04:36:54.869Z,29.10
2022-12-23T04:39:23.758Z,30.80
2022-12-23T04:41:52.442Z,29.00
2022-12-23T04:44:21.415Z,28.60
2022-12-23T04:46:50.178Z,31.10
2022-12-23T04:49:18.707Z,34.00
2022-12-23T04:51:47.575Z,34.20
2022-12-23T04:54:16.185Z,31.40
2022-12-23T04:56:44.767Z,30.30
2022-12-23T04:59:13.656Z,32.60
2022-12-23T05:01:42.858Z,28.20
2022-12-23T05:04:12.057Z,30.20
2022-12-23T05:06:40.946Z,28.00
2022-12-23T05:09:09.632Z,30.00
2022-12-23T05:11:42.157Z,30.30
2022-12-23T05:14:12.348Z,31.30
2022-12-23T05:16:40.873Z,27.00
2022-12-23T05:19:11.260Z,30.90
2022-12-23T05:21:40.228Z,26.40
2022-12-23T05:24:09.029Z,24.60
2022-12-23T05:26:37.539Z,29.70
2022-12-23T05:29:06.493Z,23.80
2022-12-23T05:31:35.437Z,28.60
2022-12-23T05:34:06.572Z,26.50
2022-12-23T05:36:35.825Z,24.70
2022-12-23T05:39:04.514Z,28.00
2022-12-23T05:41:33.000Z,25.40
2022-12-23T05:44:01.884Z,25.70
2022-12-23T05:46:30.632Z,24.70
2022-12-23T05:48:59.338Z,27.40
2022-12-23T05:51:27.966Z,27.60
2022-12-23T05:53:56.940Z,26.60
2022-12-23T05:56:25.625Z,24.90
2022-12-23T05:58:54.375Z,25.00
2022-12-23T06:01:23.201Z,26.20
2022-12-23T06:03:51.675Z,29.70
2022-12-23T06:06:20.682Z,29.40
2022-12-23T06:08:52.044Z,27.90
2022-12-23T06:11:24.602Z,27.90
2022-12-23T06:13:53.390Z,26.40
2022-12-23T06:16:21.944Z,29.30
2022-12-23T06:18:54.163Z,30.60
2022-12-23T06:21:23.286Z,29.20
2022-12-23T06:23:51.923Z,29.50
2022-12-23T06:26:20.516Z,31.80
2022-12-23T06:28:49.708Z,27.90
2022-12-23T06:31:18.683Z,28.70
2022-12-23T06:33:47.391Z,26.20
2022-12-23T06:36:16.597Z,28.50
2022-12-23T06:38:45.273Z,26.70
2022-12-23T06:41:13.872Z,25.20
2022-12-23T06:43:42.745Z,26.00
2022-12-23T06:46:11.466Z,24.90
2022-12-23T06:48:39.917Z,23.70
2022-12-23T06:51:08.815Z,30.20
2022-12-23T06:53:37.495Z,28.20
2022-12-23T06:56:06.593Z,26.50
2022-12-23T06:58:35.483Z,23.00
2022-12-23T07:01:04.406Z,25.90
2022-12-23T07:03:33.219Z,25.40
2022-12-23T07:06:02.152Z,27.60
2022-12-23T07:08:30.634Z,27.90
2022-12-23T07:11:06.259Z,27.50
2022-12-23T07:13:35.070Z,28.20
2022-12-23T07:16:08.897Z,29.50
2022-12-23T07:18:37.563Z,31.70
2022-12-23T07:21:10.164Z,32.90
2022-12-23T07:23:44.636Z,29.50
2022-12-23T07:26:13.246Z,28.60
2022-12-23T07:28:47.024Z,27.30
2022-12-23T07:31:16.299Z,29.50
2022-12-23T07:33:45.045Z,25.10
2022-12-23T07:36:13.935Z,29.20
2022-12-23T07:38:42.825Z,29.60
2022-12-23T07:41:11.221Z,31.00
2022-12-23T07:43:40.196Z,29.70
2022-12-23T07:46:10.395Z,28.80
2022-12-23T07:48:41.689Z,27.80
2022-12-23T07:53:39.591Z,29.00
2022-12-23T07:56:08.949Z,32.00
2022-12-23T07:58:37.849Z,30.60
2022-12-23T08:01:10.546Z,30.00
2022-12-23T08:03:39.422Z,25.40
2022-12-23T08:06:15.679Z,28.80
2022-12-23T08:08:46.324Z,27.40
2022-12-23T08:11:15.920Z,33.00
2022-12-23T08:13:46.443Z,28.90
2022-12-23T08:16:15.360Z,31.90
2022-12-23T08:18:43.921Z,28.90
2022-12-23T08:21:15.748Z,24.40
2022-12-23T08:23:44.888Z,29.70
2022-12-23T08:26:15.656Z,29.80
2022-12-23T08:28:45.506Z,30.50
2022-12-23T08:31:19.957Z,31.00
2022-12-23T08:33:50.684Z,27.10
2022-12-23T08:36:28.380Z,30.20
2022-12-23T08:38:59.157Z,30.70
2022-12-23T08:41:31.279Z,29.70
2022-12-23T08:46:29.196Z,31.80
2022-12-23T08:48:57.857Z,34.30
2022-12-23T08:51:27.972Z,30.40
2022-12-23T08:54:00.956Z,31.50
2022-12-23T08:56:34.444Z,29.70
2022-12-23T08:59:04.274Z,29.50
2022-12-23T09:01:34.957Z,29.20
2022-12-23T09:04:05.678Z,29.00
2022-12-23T09:06:38.602Z,29.20
2022-12-23T09:09:08.545Z,27.70
2022-12-23T09:11:37.337Z,27.90
2022-12-23T09:14:08.928Z,28.60
2022-12-23T09:16:38.589Z,29.70
2022-12-23T09:19:08.086Z,28.70
2022-12-23T09:21:36.899Z,29.80
2022-12-23T09:24:06.397Z,29.20
2022-12-23T09:26:35.083Z,27.60
2022-12-23T09:29:03.685Z,29.20
2022-12-23T09:31:36.909Z,29.40
2022-12-23T09:34:06.904Z,30.70
2022-12-23T09:36:36.076Z,29.40
2022-12-23T09:39:04.731Z,29.90
2022-12-23T09:41:49.389Z,29.00
2022-12-23T09:44:49.241Z,29.00
2022-12-23T09:47:22.325Z,30.30
2022-12-23T09:49:59.116Z,33.60
2022-12-23T09:52:54.934Z,27.50
2022-12-23T09:55:27.259Z,30.80
2022-12-23T09:58:14.916Z,34.80
2022-12-23T10:00:52.325Z,31.10
2022-12-23T10:03:27.147Z,29.50
2022-12-23T10:06:11.197Z,29.70
2022-12-23T10:08:41.714Z,33.80
2022-12-23T10:11:24.447Z,31.50
2022-12-23T10:14:12.600Z,31.80
2022-12-23T10:16:58.180Z,33.60
2022-12-23T10:19:32.902Z,33.60
2022-12-23T10:22:10.552Z,30.60
2022-12-23T10:24:42.485Z,31.50
2022-12-23T10:27:35.911Z,32.10
2022-12-23T10:30:34.350Z,32.30
2022-12-23T10:33:24.100Z,32.10
2022-12-23T10:35:52.861Z,33.80
2022-12-23T10:38:36.539Z,31.30
2022-12-23T10:41:14.322Z,30.10
2022-12-23T10:44:20.384Z,32.00
2022-12-23T10:47:05.354Z,34.20
2022-12-23T10:49:50.155Z,33.60
2022-12-23T10:52:26.222Z,34.90
2022-12-23T10:54:54.758Z,36.00
2022-12-23T10:57:25.249Z,34.90
2022-12-23T10:59:54.077Z,34.90
2022-12-23T11:02:50.021Z,34.40
2022-12-23T11:05:25.035Z,33.40
2022-12-23T11:07:55.882Z,32.80
2022-12-23T11:10:31.788Z,36.60
2022-12-23T11:13:01.153Z,36.60
2022-12-23T11:15:38.722Z,34.80
2022-12-23T11:18:18.684Z,33.00
2022-12-23T11:21:03.718Z,35.90
2022-12-23T11:23:36.854Z,34.70
2022-12-23T11:26:14.033Z,38.50
2022-12-23T11:28:58.890Z,36.30
2022-12-23T11:31:32.950Z,33.80
2022-12-23T11:34:16.032Z,35.90
2022-12-23T11:36:56.521Z,35.40
2022-12-23T11:39:34.872Z,35.50
2022-12-23T11:42:14.109Z,35.60
2022-12-23T11:44:49.279Z,36.40
2022-12-23T11:47:17.933Z,36.30
2022-12-23T11:49:50.813Z,36.20
2022-12-23T11:52:21.545Z,35.80
2022-12-23T11:54:55.820Z,34.60
2022-12-23T11:57:41.038Z,34.00
2022-12-23T12:00:21.318Z,34.50
2022-12-23T12:02:55.047Z,34.00
2022-12-23T12:05:49.948Z,32.10
2022-12-23T12:08:33.475Z,33.80
2022-12-23T12:11:46.706Z,35.10
2022-12-23T12:14:46.213Z,34.70
2022-12-23T12:17:23.545Z,35.10
2022-12-23T12:20:15.332Z,35.30
2022-12-23T12:22:49.715Z,33.50
2022-12-23T12:25:26.147Z,35.10
2022-12-23T12:28:01.653Z,33.70
2022-12-23T12:30:47.283Z,33.20
2022-12-23T12:33:42.797Z,32.30
2022-12-23T12:36:30.725Z,35.30
2022-12-23T12:39:00.519Z,34.90
2022-12-23T12:41:40.129Z,35.50
2022-12-23T12:44:47.452Z,35.00
2022-12-23T12:50:29.680Z,35.80
2022-12-23T12:53:10.977Z,33.90
2022-12-23T12:55:46.351Z,34.50
2022-12-23T12:58:23.709Z,34.70
2022-12-23T13:01:04.316Z,33.40
2022-12-23T13:03:51.685Z,34.50
2022-12-23T13:06:38.295Z,35.00
2022-12-23T13:09:09.964Z,34.30
2022-12-23T13:11:54.408Z,34.30
2022-12-23T13:14:45.940Z,34.30
2022-12-23T13:17:17.732Z,34.70
2022-12-23T13:19:52.483Z,36.10
2022-12-23T13:22:41.381Z,36.00
2022-12-23T13:25:12.968Z,36.80
2022-12-23T13:27:58.014Z,35.80
2022-12-23T13:30:45.651Z,35.30
2022-12-23T13:33:42.586Z,37.30
2022-12-23T13:36:27.482Z,36.30
2022-12-23T13:39:10.987Z,37.80
2022-12-23T13:41:46.125Z,36.80
2022-12-23T13:44:15.435Z,36.70
2022-12-23T13:47:25.184Z,36.50
2022-12-23T13:50:25.974Z,37.40
2022-12-23T13:53:07.091Z,36.40
2022-12-23T13:55:51.529Z,36.00
2022-12-23T13:58:26.880Z,36.00
2022-12-23T14:01:10.788Z,36.90
2022-12-23T14:03:40.239Z,36.90
2022-12-23T14:06:41.127Z,36.90
2022-12-23T14:09:16.530Z,37.90
2022-12-23T14:11:45.724Z,35.60
2022-12-23T14:14:25.883Z,35.70
2022-12-23T14:17:05.741Z,38.60
2022-12-23T14:19:34.632Z,36.00
2022-12-23T14:22:31.163Z,35.30
2022-12-23T14:25:18.792Z,36.50
2022-12-23T14:27:47.169Z,37.50
2022-12-23T14:30:22.275Z,37.10
2022-12-23T14:32:53.848Z,36.20
2022-12-23T14:35:46.123Z,34.50
2022-12-23T14:40:43.393Z,32.00
2022-12-23T14:43:26.058Z,33.80
2022-12-23T14:46:00.206Z,32.30
2022-12-23T14:48:35.012Z,33.00
2022-12-23T14:51:23.277Z,34.60
2022-12-23T14:53:52.449Z,34.90
2022-12-23T14:56:28.079Z,35.00
2022-12-23T14:59:23.858Z,33.40
2022-12-23T15:02:02.314Z,31.80
2022-12-23T15:04:32.997Z,31.70
2022-12-23T15:07:08.881Z,33.30
2022-12-23T15:09:55.726Z,31.90
2022-12-23T15:12:32.511Z,31.50
2022-12-23T15:15:14.649Z,30.30
2022-12-23T15:17:43.947Z,34.40
2022-12-23T15:20:24.052Z,31.10
2022-12-23T15:22:53.311Z,32.00
2022-12-23T15:25:30.591Z,33.70
2022-12-23T15:28:02.625Z,30.60
2022-12-23T15:33:21.806Z,27.40
2022-12-23T15:38:30.985Z,28.80
2022-12-23T15:41:06.966Z,31.30
2022-12-23T15:43:41.401Z,30.90
2022-12-23T15:46:18.910Z,29.70
2022-12-23T15:48:49.807Z,29.90
2022-12-23T15:52:06.400Z,30.40
2022-12-23T15:54:51.996Z,28.90
2022-12-23T15:57:24.874Z,30.40
2022-12-23T15:59:53.980Z,30.60
2022-12-23T16:03:00.330Z,29.90
2022-12-23T16:05:45.222Z,30.80
2022-12-23T16:08:17.223Z,30.20
2022-12-23T16:11:19.038Z,29.50
2022-12-23T16:13:59.563Z,31.00
2022-12-23T16:16:34.792Z,31.60
2022-12-23T16:19:03.832Z,31.30
2022-12-23T16:21:37.339Z,32.80
2022-12-23T16:24:09.907Z,34.30
2022-12-23T16:26:43.149Z,33.70
2022-12-23T16:29:12.394Z,32.30
2022-12-23T16:31:47.848Z,32.20
2022-12-23T16:34:20.189Z,31.00
2022-12-23T16:36:49.050Z,32.80
2022-12-23T16:39:23.147Z,32.90
2022-12-23T16:41:51.912Z,29.60
2022-12-23T16:44:21.426Z,31.60
2022-12-23T16:46:51.947Z,32.10
2022-12-23T16:49:28.002Z,31.80
2022-12-23T16:52:00.170Z,32.90
2022-12-23T16:54:29.179Z,29.60
2022-12-23T16:56:58.242Z,32.40
2022-12-23T16:59:26.946Z,34.00
2022-12-23T17:02:02.903Z,32.20
2022-12-23T17:04:32.511Z,32.60
2022-12-23T17:07:01.506Z,33.50
2022-12-23T17:09:29.987Z,33.00
2022-12-23T17:11:59.323Z,34.50
2022-12-23T17:14:28.125Z,29.50
2022-12-23T17:16:57.837Z,31.70
2022-12-23T17:19:29.447Z,32.70
2022-12-23T17:22:03.657Z,30.40
2022-12-23T17:24:32.450Z,30.30
2022-12-23T17:27:01.031Z,31.00
2022-12-23T17:29:29.821Z,31.90
2022-12-23T17:31:58.525Z,32.00
2022-12-23T17:34:27.295Z,31.70
2022-12-23T17:36:56.013Z,31.60
2022-12-23T17:39:24.633Z,31.30
2022-12-23T17:41:53.429Z,34.50
2022-12-23T17:44:22.142Z,33.90
2022-12-23T17:46:50.842Z,32.30
2022-12-23T17:49:19.521Z,32.70
2022-12-23T17:51:48.511Z,31.70
2022-12-23T17:54:23.320Z,32.50
2022-12-23T17:56:52.869Z,33.10
2022-12-23T17:59:22.260Z,34.00
2022-12-23T18:01:51.285Z,32.80
2022-12-23T18:04:20.302Z,32.40
2022-12-23T18:06:48.962Z,31.90
2022-12-23T18:09:19.143Z,32.30
2022-12-23T18:11:48.031Z,32.30
2022-12-23T18:14:22.667Z,31.70
2022-12-23T18:16:51.719Z,31.90
2022-12-23T18:19:21.621Z,31.40
2022-12-23T18:21:51.597Z,31.70
2022-12-23T18:24:20.280Z,31.50
2022-12-23T18:26:49.062Z,30.80
2022-12-23T18:29:17.750Z,31.80
2022-12-23T18:31:52.092Z,32.60
2022-12-23T18:34:21.411Z,35.30
2022-12-23T18:36:52.102Z,38.30
2022-12-23T18:39:21.365Z,36.10
2022-12-23T18:41:50.222Z,36.20
2022-12-23T18:44:21.199Z,33.60
2022-12-23T18:46:50.623Z,37.60
2022-12-23T18:49:19.282Z,37.30
2022-12-23T18:51:48.224Z,38.00
2022-12-23T18:54:17.409Z,37.30
2022-12-23T18:56:47.226Z,38.10
2022-12-23T18:59:24.004Z,38.30
2022-12-23T19:01:58.539Z,38.10
2022-12-23T19:04:28.103Z,39.90
2022-12-23T19:06:57.476Z,38.30
2022-12-23T19:09:26.651Z,41.00
2022-12-23T19:11:55.405Z,43.60
2022-12-23T19:14:23.900Z,41.00
2022-12-23T19:16:53.157Z,39.70
2022-12-23T19:19:22.519Z,41.90
2022-12-23T19:21:51.090Z,44.50
2022-12-23T19:24:19.777Z,44.00
2022-12-23T19:26:48.571Z,42.70
2022-12-23T19:29:17.259Z,43.40
2022-12-23T19:31:45.933Z,43.30
2022-12-23T19:34:15.963Z,42.90
2022-12-23T19:36:45.314Z,46.00
2022-12-23T19:39:17.063Z,46.40
2022-12-23T19:41:45.953Z,47.70
2022-12-23T19:44:14.771Z,46.50
2022-12-23T19:46:43.812Z,44.00
2022-12-23T19:49:19.212Z,47.30
2022-12-23T19:51:49.550Z,48.60
2022-12-23T19:54:19.157Z,47.40
2022-12-23T19:56:51.801Z,45.20
2022-12-23T19:59:21.663Z,47.30
2022-12-23T20:01:50.379Z,44.10
2022-12-23T20:04:19.451Z,43.90
2022-12-23T20:06:48.024Z,44.60
2022-12-23T20:09:17.119Z,45.40
2022-12-23T20:11:47.933Z,43.10
2022-12-23T20:14:18.991Z,44.50
2022-12-23T20:16:48.891Z,45.20
2022-12-23T20:19:18.456Z,45.20
2022-12-23T20:21:47.114Z,41.30
2022-12-23T20:24:16.419Z,43.60
2022-12-23T20:26:45.098Z,42.40
2022-12-23T20:29:13.684Z,41.90
2022-12-23T20:31:42.743Z,45.50
2022-12-23T20:34:16.119Z,45.40
2022-12-23T20:36:45.091Z,46.40
2022-12-23T20:39:14.263Z,41.80
2022-12-23T20:41:43.875Z,43.60
2022-12-23T20:47:01.805Z,40.50
2022-12-23T20:49:30.914Z,42.20
2022-12-23T20:51:59.537Z,42.00
2022-12-23T20:54:33.412Z,42.00
2022-12-23T20:57:03.014Z,40.70
2022-12-23T20:59:31.811Z,43.00
2022-12-23T21:02:01.563Z,44.10
2022-12-23T21:04:30.431Z,44.10
2022-12-23T21:06:59.403Z,46.10
2022-12-23T21:09:28.091Z,46.80
2022-12-23T21:11:57.186Z,47.60
2022-12-23T21:14:25.976Z,47.40
2022-12-23T21:16:54.968Z,47.50
2022-12-23T21:19:25.706Z,47.40
2022-12-23T21:21:54.577Z,47.90
2022-12-23T21:24:23.756Z,47.70
2022-12-23T21:26:56.474Z,51.50
2022-12-23T21:29:26.327Z,46.10
2022-12-23T21:31:55.651Z,49.80
2022-12-23T21:34:24.592Z,49.60
2022-12-23T21:36:53.421Z,42.90
2022-12-23T21:39:22.328Z,43.50
2022-12-23T21:41:51.772Z,46.70
2022-12-23T21:44:20.629Z,46.70
2022-12-23T21:46:51.370Z,47.40
2022-12-23T21:49:21.105Z,45.50
2022-12-23T21:51:49.891Z,46.30
2022-12-23T21:54:18.470Z,48.50
2022-12-23T21:56:46.953Z,50.00
2022-12-23T21:59:15.842Z,47.40
2022-12-23T22:01:44.982Z,46.70
2022-12-23T22:04:13.533Z,46.30
2022-12-23T22:06:46.431Z,44.60
2022-12-23T22:09:19.819Z,48.20
2022-12-23T22:11:49.252Z,44.20
2022-12-23T22:14:19.874Z,47.10
2022-12-23T22:16:48.515Z,45.50
2022-12-23T22:19:18.561Z,46.40
2022-12-23T22:21:47.543Z,47.30
2022-12-23T22:24:16.019Z,48.20
2022-12-23T22:26:44.717Z,46.60
2022-12-23T22:29:13.505Z,45.40
2022-12-23T22:31:41.986Z,44.70
2022-12-23T22:34:15.654Z,47.20
2022-12-23T22:36:44.970Z,43.30
2022-12-23T22:39:20.154Z,43.30
2022-12-23T22:41:51.648Z,46.10
2022-12-23T22:44:21.404Z,44.80
2022-12-23T22:46:50.294Z,42.80
2022-12-23T22:49:19.546Z,45.80
2022-12-23T22:51:48.158Z,46.50
2022-12-23T22:54:16.651Z,48.10
2022-12-23T22:56:46.352Z,45.50
2022-12-23T22:59:23.709Z,47.00
2022-12-23T23:01:53.442Z,50.60
2022-12-23T23:04:22.649Z,45.90
2022-12-23T23:06:51.032Z,49.90
2022-12-23T23:09:21.363Z,48.70
2022-12-23T23:11:51.041Z,49.10
2022-12-23T23:14:20.428Z,47.10
2022-12-23T23:16:49.269Z,48.90
2022-12-23T23:19:20.666Z,49.60
2022-12-23T23:21:49.716Z,47.90
2022-12-23T23:24:18.188Z,47.80
2022-12-23T23:26:46.982Z,48.10
2022-12-23T23:29:15.861Z,49.00
2022-12-23T23:31:44.845Z,48.90
2022-12-23T23:34:14.404Z,53.10
2022-12-23T23:36:43.532Z,53.70
2022-12-23T23:39:13.167Z,51.90
2022-12-23T23:41:42.368Z,53.00
2022-12-23T23:44:11.978Z,51.80
2022-12-23T23:46:40.566Z,52.10
2022-12-23T23:49:09.140Z,52.20
2022-12-23T23:51:38.712Z,46.80
2022-12-23T23:54:07.856Z,50.60
2022-12-23T23:56:38.990Z,49.50
